EPLL/LCJ METAR and TAF weather

Enter ICAO airport designator
Station Type Date Time Source
EPLL METAR 2019/12/14 11:00 UTC NOAA

EPLL 141100Z 19006KT 120V230 9999 FEW034 06/01 Q0992


Station Type Date Time Source
EPLL Decoded METAR 2019/12/14 11:00 UTC NOAA

Station name not available
Dec 14, 2019 - 06:00 AM EST / 2019.12.14 1100 UTC
Wind: from the S (190 degrees) at 7 MPH (6 KT) (direction variable):0
Visibility: greater than 7 mile(s):0
Sky conditions: mostly clear
Temperature: 42 F (6 C)
Dew Point: 33 F (1 C)
Relative Humidity: 70%
Pressure (altimeter): 29.29 in. Hg (0992 hPa)
ob: EPLL 141100Z 19006KT 120V230 9999 FEW034 06/01 Q0992
cycle: 11

Station Type Date Time Source
EPLL TAF 2019/12/14 12:00 UTC NOAA

TAF EPLL 141130Z 1412/1512 18010KT 9999 SCT030
BECMG 1415/1418 25015KT
TEMPO 1415/1505 24017G27KT -RA BKN014 PROB40
TEMPO 1423/1505 4000 RA BKN009
BECMG 1506/1508 19010KT

Example: see airport list